Time;durP1;ratioP1;P1;durP2;ratioP2;P2;SDS_P1;SDS_P2;PMS_P1;PMS_P2;Temp;Humidity;BMP_temperature;BMP_pressure;BME280_temperature;BME280_humidity;BME280_pressure;Samples;Min_cycle;Max_cycle;Signal;HPM_P1;HPM_P2
2023/11/07 00:02:44;;;;;;;7.18;1.50;;;;;;;;;;6140844;23;20044;-65
2023/11/07 00:05:31;;;;;;;8.30;1.65;;;;;;;;;;6138995;23;20028;-62
2023/11/07 00:08:25;;;;;;;7.13;1.73;;;;;;;;;;6138893;23;20033;-63
2023/11/07 00:11:19;;;;;;;8.73;1.50;;;;;;;;;;6140555;23;20561;-63
2023/11/07 00:14:07;;;;;;;3.28;1.30;;;;;;;;;;6141610;23;20021;-64
2023/11/07 00:17:03;;;;;;;9.60;1.85;;;;;;;;;;6138137;23;20029;-63
2023/11/07 00:19:50;;;;;;;5.30;1.67;;;;;;;;;;6139762;23;20395;-63
2023/11/07 00:22:57;;;;;;;12.98;1.50;;;;;;;;;;6140865;23;20022;-63
2023/11/07 00:25:53;;;;;;;12.07;1.77;;;;;;;;;;6139250;23;20088;-62
2023/11/07 00:28:46;;;;;;;8.88;1.40;;;;;;;;;;6141335;23;20095;-50
2023/11/07 00:31:32;;;;;;;13.57;1.65;;;;;;;;;;6140565;23;20021;-54
2023/11/07 00:34:27;;;;;;;7.20;1.50;;;;;;;;;;6138029;23;20026;-55
2023/11/07 00:37:13;;;;;;;9.48;1.63;;;;;;;;;;6142551;23;20025;-54
2023/11/07 00:40:09;;;;;;;7.13;1.35;;;;;;;;;;6142220;23;20018;-55
2023/11/07 00:42:55;;;;;;;10.57;1.65;;;;;;;;;;6142278;23;20026;-53
2023/11/07 00:45:48;;;;;;;10.13;1.90;;;;;;;;;;6141395;23;20026;-54
2023/11/07 00:48:36;;;;;;;14.55;1.92;;;;;;;;;;6140011;23;20072;-52
2023/11/07 00:51:29;;;;;;;7.53;1.50;;;;;;;;;;6139754;23;20025;-55
2023/11/07 00:54:16;;;;;;;17.52;2.00;;;;;;;;;;6140358;23;20026;-55
2023/11/07 00:57:10;;;;;;;7.07;1.45;;;;;;;;;;6140392;23;20033;-53
2023/11/07 01:00:04;;;;;;;14.30;2.25;;;;;;;;;;6139756;23;20068;-60
2023/11/07 01:02:32;;;;;;;6.75;1.50;;;;;;;;;;6137616;23;20104;-52
2023/11/07 01:04:59;;;;;;;;;;;;;;;;;;6140651;23;20029;-64
2023/11/07 01:07:33;;;;;;;7.60;1.92;;;;;;;;;;6140653;23;19991;-65
2023/11/07 01:10:00;;;;;;;7.53;1.58;;;;;;;;;;6141229;23;20043;-64
2023/11/07 01:12:35;;;;;;;2.10;1.25;;;;;;;;;;6139715;23;20396;-64
2023/11/07 01:15:05;;;;;;;10.27;1.70;;;;;;;;;;6140894;23;20029;-64
2023/11/07 01:17:32;;;;;;;9.60;1.73;;;;;;;;;;6139170;23;20057;-65
2023/11/07 01:20:07;;;;;;;6.35;1.67;;;;;;;;;;6140751;23;20128;-64
2023/11/07 01:22:34;;;;;;;;;;;;;;;;;;6140716;23;20092;-65
2023/11/07 01:25:14;;;;;;;6.93;1.40;;;;;;;;;;6139745;23;19921;-64
2023/11/07 01:27:41;;;;;;;9.85;1.85;;;;;;;;;;6138976;23;20084;-64
2023/11/07 01:30:15;;;;;;;4.35;1.70;;;;;;;;;;6141645;23;20029;-64
2023/11/07 01:32:52;;;;;;;9.73;2.17;;;;;;;;;;6140521;23;20034;-65
2023/11/07 01:35:20;;;;;;;8.05;1.67;;;;;;;;;;6140983;23;20079;-63
2023/11/07 01:37:47;;;;;;;5.18;1.25;;;;;;;;;;6140407;23;20044;-64
2023/11/07 01:40:22;;;;;;;2.97;1.25;;;;;;;;;;6141824;23;20400;-54
2023/11/07 01:42:55;;;;;;;4.57;1.45;;;;;;;;;;6140279;23;20021;-54
2023/11/07 01:45:23;;;;;;;3.33;1.40;;;;;;;;;;6139543;23;20084;-51
2023/11/07 01:47:50;;;;;;;4.95;1.52;;;;;;;;;;6137056;23;20025;-52
2023/11/07 01:50:24;;;;;;;4.65;1.30;;;;;;;;;;6138899;23;20368;-54
2023/11/07 01:53:12;;;;;;;4.75;1.52;;;;;;;;;;6139565;23;20021;-52
2023/11/07 01:56:05;;;;;;;2.03;1.08;;;;;;;;;;6139751;23;20456;-64
2023/11/07 01:58:57;;;;;;;6.30;1.60;;;;;;;;;;6140303;23;20025;-65
2023/11/07 02:01:51;;;;;;;6.00;1.20;;;;;;;;;;6141183;23;20040;-64
2023/11/07 02:04:38;;;;;;;6.60;1.20;;;;;;;;;;6140866;23;20412;-64
2023/11/07 02:07:32;;;;;;;2.13;1.10;;;;;;;;;;6140744;23;20083;-64
2023/11/07 02:10:20;;;;;;;4.93;1.17;;;;;;;;;;6142211;23;20119;-64
2023/11/07 02:13:13;;;;;;;6.45;1.27;;;;;;;;;;6141087;23;20025;-53
2023/11/07 02:16:00;;;;;;;2.78;1.30;;;;;;;;;;6140736;23;20100;-60
2023/11/07 02:18:56;;;;;;;3.67;1.13;;;;;;;;;;6139561;23;20539;-53
2023/11/07 02:21:48;;;;;;;5.53;1.50;;;;;;;;;;6139452;23;20097;-52
2023/11/07 02:24:49;;;;;;;6.18;1.10;;;;;;;;;;6140585;23;20169;-52
2023/11/07 02:27:37;;;;;;;3.63;1.08;;;;;;;;;;6140679;23;20025;-53
2023/11/07 02:30:31;;;;;;;6.55;1.55;;;;;;;;;;6138816;23;20084;-53
2023/11/07 02:33:19;;;;;;;5.03;1.20;;;;;;;;;;6140559;23;20026;-61
2023/11/07 02:36:12;;;;;;;3.92;1.02;;;;;;;;;;6140410;23;20431;-60
2023/11/07 02:38:59;;;;;;;3.53;1.20;;;;;;;;;;6139288;23;20474;-60
2023/11/07 02:41:53;;;;;;;3.70;1.30;;;;;;;;;;6141244;23;20025;-60
2023/11/07 02:44:41;;;;;;;8.40;1.40;;;;;;;;;;6140020;23;20022;-60
2023/11/07 02:47:34;;;;;;;4.68;1.33;;;;;;;;;;6139369;23;20053;-61
2023/11/07 02:50:21;;;;;;;4.40;1.40;;;;;;;;;;6139987;23;20861;-61
2023/11/07 02:53:16;;;;;;;3.55;1.40;;;;;;;;;;6138666;23;20101;-54
2023/11/07 02:56:03;;;;;;;9.75;1.50;;;;;;;;;;6141292;23;20518;-54
2023/11/07 02:58:58;;;;;;;2.05;1.48;;;;;;;;;;6140457;23;20040;-49
2023/11/07 03:01:44;;;;;;;4.20;1.50;;;;;;;;;;6140527;23;20739;-54
2023/11/07 03:04:38;;;;;;;5.97;1.25;;;;;;;;;;6139294;23;20029;-49
2023/11/07 03:07:32;;;;;;;7.95;1.48;;;;;;;;;;6139636;23;20026;-52
2023/11/07 03:10:19;;;;;;;7.20;1.73;;;;;;;;;;6140019;23;20055;-63
2023/11/07 03:13:13;;;;;;;6.63;1.42;;;;;;;;;;6140126;23;20026;-52
2023/11/07 03:16:05;;;;;;;4.88;1.55;;;;;;;;;;6141350;23;20034;-51
2023/11/07 03:18:58;;;;;;;2.83;1.20;;;;;;;;;;6139789;23;20025;-53
2023/11/07 03:21:52;;;;;;;11.02;1.50;;;;;;;;;;6140780;23;20798;-51
2023/11/07 03:24:53;;;;;;;6.13;1.60;;;;;;;;;;6139754;23;20351;-53
2023/11/07 03:27:40;;;;;;;5.57;1.70;;;;;;;;;;6139515;23;20084;-61
2023/11/07 03:30:35;;;;;;;3.28;1.60;;;;;;;;;;6139407;23;20029;-59
2023/11/07 03:33:22;;;;;;;5.47;1.33;;;;;;;;;;6138646;23;20029;-59
2023/11/07 03:36:15;;;;;;;7.63;1.55;;;;;;;;;;6139593;23;20029;-59
2023/11/07 03:39:03;;;;;;;6.45;1.63;;;;;;;;;;6138085;23;20488;-58
2023/11/07 03:41:56;;;;;;;4.93;1.48;;;;;;;;;;6138813;23;20329;-59
2023/11/07 03:44:43;;;;;;;10.15;1.40;;;;;;;;;;6139538;23;20064;-58
2023/11/07 03:47:37;;;;;;;4.70;1.65;;;;;;;;;;6140139;23;20033;-64
2023/11/07 03:50:25;;;;;;;9.48;1.70;;;;;;;;;;6138405;23;20496;-58
2023/11/07 03:53:18;;;;;;;5.15;2.10;;;;;;;;;;6139462;23;20460;-58
2023/11/07 03:56:06;;;;;;;4.65;1.73;;;;;;;;;;6138601;23;20509;-59
2023/11/07 03:58:59;;;;;;;9.45;1.80;;;;;;;;;;6138500;23;20033;-59
2023/11/07 04:01:55;;;;;;;9.50;2.10;;;;;;;;;;6138738;23;20025;-58
2023/11/07 04:04:48;;;;;;;8.52;2.00;;;;;;;;;;6137473;23;20025;-63
2023/11/07 04:07:35;;;;;;;5.75;1.70;;;;;;;;;;6139324;23;20943;-52
2023/11/07 04:10:28;;;;;;;5.40;1.40;;;;;;;;;;6140453;23;20018;-51
2023/11/07 04:13:15;;;;;;;5.68;1.75;;;;;;;;;;6140099;23;20022;-53
2023/11/07 04:16:09;;;;;;;9.60;1.77;;;;;;;;;;6139676;23;20714;-53
2023/11/07 04:18:57;;;;;;;8.02;1.70;;;;;;;;;;6137285;23;20104;-50
2023/11/07 04:22:04;;;;;;;4.25;1.73;;;;;;;;;;5793033;23;8162281;-63
2023/11/07 04:24:57;;;;;;;4.60;1.58;;;;;;;;;;6142393;23;20045;-51
2023/11/07 04:27:51;;;;;;;6.13;2.25;;;;;;;;;;6139891;23;20100;-61
2023/11/07 04:30:22;;;;;;;3.92;1.65;;;;;;;;;;6139845;23;20510;-61
2023/11/07 04:33:12;;;;;;;4.25;1.80;;;;;;;;;;6140915;23;20471;-61
2023/11/07 04:36:01;;;;;;;3.00;1.70;;;;;;;;;;6139406;23;20113;-61
2023/11/07 04:38:54;;;;;;;3.38;1.52;;;;;;;;;;6139894;23;20033;-61
2023/11/07 04:41:41;;;;;;;3.40;1.52;;;;;;;;;;6141107;23;20033;-62
2023/11/07 04:44:35;;;;;;;4.95;1.45;;;;;;;;;;6139956;23;20026;-53
2023/11/07 04:47:30;;;;;;;4.47;2.08;;;;;;;;;;6141181;23;20468;-51
2023/11/07 04:50:17;;;;;;;3.43;1.70;;;;;;;;;;6138235;23;20570;-50
2023/11/07 04:53:11;;;;;;;5.03;1.95;;;;;;;;;;6141334;23;20470;-54
2023/11/07 04:55:59;;;;;;;5.25;2.05;;;;;;;;;;6137640;23;20021;-53
2023/11/07 04:58:52;;;;;;;6.90;1.95;;;;;;;;;;6138354;23;20021;-59
2023/11/07 05:01:25;;;;;;;5.70;2.03;;;;;;;;;;6137706;23;20104;-64
2023/11/07 05:04:19;;;;;;;8.38;1.77;;;;;;;;;;6140738;23;20099;-61
2023/11/07 05:07:06;;;;;;;9.82;2.03;;;;;;;;;;6138364;23;20089;-61
2023/11/07 05:09:59;;;;;;;4.97;1.95;;;;;;;;;;6142653;23;20104;-61
2023/11/07 05:12:54;;;;;;;8.07;2.00;;;;;;;;;;6142142;23;20396;-62
2023/11/07 05:15:42;;;;;;;6.10;1.63;;;;;;;;;;6142205;23;20025;-61
2023/11/07 05:18:34;;;;;;;7.07;1.75;;;;;;;;;;6141514;23;20478;-54
2023/11/07 05:21:22;;;;;;;6.22;2.13;;;;;;;;;;6138370;23;20093;-61
2023/11/07 05:24:23;;;;;;;12.55;2.00;;;;;;;;;;6141118;23;20022;-62
2023/11/07 05:27:10;;;;;;;9.30;2.10;;;;;;;;;;6138417;23;20463;-62
2023/11/07 05:30:04;;;;;;;7.82;2.20;;;;;;;;;;6140016;23;20026;-61
2023/11/07 05:32:51;;;;;;;5.13;2.08;;;;;;;;;;6139716;23;20030;-61
2023/11/07 05:35:45;;;;;;;5.75;1.90;;;;;;;;;;6139337;23;20021;-60
2023/11/07 05:38:39;;;;;;;4.70;2.10;;;;;;;;;;6140556;23;20026;-64
2023/11/07 05:41:27;;;;;;;6.40;1.80;;;;;;;;;;6136830;23;20029;-64
2023/11/07 05:44:21;;;;;;;5.10;2.38;;;;;;;;;;6138582;23;20025;-63
2023/11/07 05:47:08;;;;;;;7.18;1.92;;;;;;;;;;6137906;23;20032;-65
2023/11/07 05:50:02;;;;;;;4.88;2.10;;;;;;;;;;6137540;23;20036;-64
2023/11/07 05:52:49;;;;;;;5.38;1.92;;;;;;;;;;6137548;23;20135;-64
2023/11/07 05:55:42;;;;;;;3.03;1.90;;;;;;;;;;6113154;23;20682;-64
2023/11/07 05:58:30;;;;;;;4.65;1.95;;;;;;;;;;6114841;23;20030;-60
2023/11/07 06:01:24;;;;;;;7.28;2.20;;;;;;;;;;6140284;23;20022;-60
2023/11/07 06:04:29;;;;;;;6.30;2.00;;;;;;;;;;6142508;23;20033;-60
2023/11/07 06:07:23;;;;;;;11.25;2.28;;;;;;;;;;6142074;23;20087;-59
2023/11/07 06:10:10;;;;;;;6.15;2.30;;;;;;;;;;6140953;23;20538;-60
2023/11/07 06:13:04;;;;;;;8.40;2.00;;;;;;;;;;6140597;23;20403;-59
2023/11/07 06:15:51;;;;;;;5.97;2.20;;;;;;;;;;6141604;23;20740;-54
2023/11/07 06:18:45;;;;;;;8.52;2.28;;;;;;;;;;6142790;23;20052;-52
2023/11/07 06:21:32;;;;;;;8.35;2.38;;;;;;;;;;6139943;23;20073;-55
2023/11/07 06:24:12;;;;;;;7.32;2.40;;;;;;;;;;6141302;23;20025;-55
2023/11/07 06:27:13;;;;;;;5.07;2.15;;;;;;;;;;6142122;23;20060;-55
2023/11/07 06:30:08;;;;;;;11.13;2.38;;;;;;;;;;6140903;23;20639;-53
2023/11/07 06:32:54;;;;;;;6.15;2.70;;;;;;;;;;6141477;23;20022;-54
2023/11/07 06:35:49;;;;;;;2.78;1.90;;;;;;;;;;6140468;23;20460;-65
2023/11/07 06:38:41;;;;;;;9.30;2.42;;;;;;;;;;6141192;23;20033;-65
2023/11/07 06:41:29;;;;;;;8.73;2.30;;;;;;;;;;6140681;23;20034;-65
2023/11/07 06:44:22;;;;;;;8.57;2.95;;;;;;;;;;6141797;23;20032;-64
2023/11/07 06:47:10;;;;;;;5.75;2.15;;;;;;;;;;6142806;23;20025;-64
2023/11/07 06:50:07;;;;;;;6.45;2.80;;;;;;;;;;6141863;23;20036;-64
2023/11/07 06:52:52;;;;;;;7.38;2.15;;;;;;;;;;6142557;23;20749;-64
2023/11/07 06:55:46;;;;;;;13.80;2.30;;;;;;;;;;6142495;23;20025;-64
2023/11/07 06:58:33;;;;;;;8.25;2.30;;;;;;;;;;6143175;23;20408;-63
2023/11/07 07:01:28;;;;;;;6.72;2.75;;;;;;;;;;6143838;23;20021;-64
2023/11/07 07:04:15;;;;;;;4.35;2.40;;;;;;;;;;6144534;23;20076;-64
2023/11/07 07:07:08;;;;;;;8.40;2.90;;;;;;;;;;6143427;23;20606;-64
2023/11/07 07:09:36;;;;;;;7.15;2.83;;;;;;;;;;6142787;23;20029;-58
2023/11/07 07:12:03;;;;;;;6.13;2.97;;;;;;;;;;6142610;23;20096;-59
2023/11/07 07:14:36;;;;;;;4.78;2.60;;;;;;;;;;6143557;23;20053;-60
2023/11/07 07:17:07;;;;;;;3.45;2.35;;;;;;;;;;6143870;23;20467;-60
2023/11/07 07:19:37;;;;;;;6.07;2.92;;;;;;;;;;6142329;23;20022;-60
2023/11/07 07:22:18;;;;;;;5.43;2.72;;;;;;;;;;6143387;23;20080;-60
2023/11/07 07:24:52;;;;;;;3.30;2.50;;;;;;;;;;6143368;23;20550;-60
2023/11/07 07:27:28;;;;;;;6.85;2.60;;;;;;;;;;6141901;23;20509;-55
2023/11/07 07:29:56;;;;;;;9.63;2.67;;;;;;;;;;6142930;23;20022;-52
2023/11/07 07:32:30;;;;;;;10.15;2.80;;;;;;;;;;6142727;23;20137;-54
2023/11/07 07:35:14;;;;;;;5.38;2.60;;;;;;;;;;6144032;23;20061;-55
2023/11/07 07:37:51;;;;;;;11.95;2.92;;;;;;;;;;6143436;23;20025;-56
2023/11/07 07:40:25;;;;;;;6.18;2.33;;;;;;;;;;6142347;23;20680;-55
2023/11/07 07:42:54;;;;;;;4.40;2.60;;;;;;;;;;6143393;23;20400;-50
2023/11/07 07:45:21;;;;;;;;;;;;;;;;;;6141717;23;20037;-55
2023/11/07 07:47:57;;;;;;;5.40;2.78;;;;;;;;;;6142337;23;19920;-55
2023/11/07 07:50:25;;;;;;;4.22;2.67;;;;;;;;;;6144360;23;20018;-53
2023/11/07 07:52:56;;;;;;;5.38;2.80;;;;;;;;;;6142997;23;20040;-53
2023/11/07 07:55:30;;;;;;;6.78;2.78;;;;;;;;;;6142444;23;20028;-55
2023/11/07 07:58:03;;;;;;;5.57;2.60;;;;;;;;;;6142966;23;20025;-55
2023/11/07 08:00:38;;;;;;;4.07;2.70;;;;;;;;;;6142620;23;20584;-52
2023/11/07 08:03:06;;;;;;;;;;;;;;;;;;6142787;23;20076;-62
2023/11/07 08:05:59;;;;;;;8.98;2.40;;;;;;;;;;6142624;23;19921;-54
2023/11/07 08:08:46;;;;;;;3.83;2.60;;;;;;;;;;6143236;23;20065;-52
2023/11/07 08:11:41;;;;;;;4.95;2.50;;;;;;;;;;6142749;23;20479;-55
2023/11/07 08:14:29;;;;;;;4.38;2.35;;;;;;;;;;6144133;23;20040;-54
2023/11/07 08:17:20;;;;;;;7.93;2.55;;;;;;;;;;6142415;23;20968;-52
2023/11/07 08:20:14;;;;;;;7.25;2.58;;;;;;;;;;6143761;23;20452;-52
2023/11/07 08:23:15;;;;;;;9.57;2.70;;;;;;;;;;6143436;23;20030;-59
2023/11/07 08:26:17;;;;;;;5.32;2.30;;;;;;;;;;6143243;23;20022;-53
2023/11/07 08:29:06;;;;;;;4.10;2.30;;;;;;;;;;6142798;23;20037;-51
2023/11/07 08:31:56;;;;;;;2.75;2.20;;;;;;;;;;6142264;23;20021;-55
2023/11/07 08:34:44;;;;;;;4.75;2.00;;;;;;;;;;6143225;23;20021;-54
2023/11/07 08:37:38;;;;;;;2.78;1.70;;;;;;;;;;6142783;23;20029;-53
2023/11/07 08:40:26;;;;;;;7.22;2.47;;;;;;;;;;6141918;23;20025;-54
2023/11/07 08:42:59;;;;;;;3.20;2.17;;;;;;;;;;6142649;23;20726;-60
2023/11/07 08:45:28;;;;;;;4.22;2.25;;;;;;;;;;6142810;23;20025;-60
2023/11/07 08:48:20;;;;;;;5.15;2.30;;;;;;;;;;6140559;23;20088;-61
2023/11/07 08:51:08;;;;;;;4.47;2.20;;;;;;;;;;6142682;23;20337;-60
2023/11/07 08:54:01;;;;;;;3.42;2.10;;;;;;;;;;6143255;23;20076;-60
2023/11/07 08:56:49;;;;;;;4.32;1.77;;;;;;;;;;6140965;23;20045;-60
2023/11/07 08:59:44;;;;;;;2.25;1.85;;;;;;;;;;6142842;23;20489;-64
2023/11/07 09:02:30;;;;;;;4.72;2.00;;;;;;;;;;6142109;23;20032;-61
2023/11/07 09:05:24;;;;;;;4.68;1.90;;;;;;;;;;6142645;23;20112;-60
2023/11/07 09:08:18;;;;;;;3.97;1.88;;;;;;;;;;6142136;23;20033;-60
2023/11/07 09:11:05;;;;;;;3.08;1.75;;;;;;;;;;6142102;23;20080;-61
2023/11/07 09:13:58;;;;;;;4.28;1.80;;;;;;;;;;6141931;23;20021;-61
2023/11/07 09:16:53;;;;;;;4.85;1.55;;;;;;;;;;6139961;23;20025;-60
2023/11/07 09:19:41;;;;;;;3.47;1.65;;;;;;;;;;6141348;23;20503;-51
2023/11/07 09:22:49;;;;;;;7.20;2.00;;;;;;;;;;6141935;23;20025;-53
2023/11/07 09:25:44;;;;;;;3.95;1.58;;;;;;;;;;6140295;23;20021;-53
2023/11/07 09:28:18;;;;;;;7.60;1.70;;;;;;;;;;6142033;23;20084;-53
2023/11/07 09:31:07;;;;;;;5.63;1.40;;;;;;;;;;6140995;23;20059;-53
2023/11/07 09:33:59;;;;;;;5.65;1.52;;;;;;;;;;6142327;23;20388;-54
2023/11/07 09:36:50;;;;;;;2.55;1.60;;;;;;;;;;6141102;23;20051;-64
2023/11/07 09:39:43;;;;;;;2.30;1.63;;;;;;;;;;6141008;23;20040;-52
2023/11/07 09:42:31;;;;;;;1.70;1.58;;;;;;;;;;6141283;23;20849;-55
2023/11/07 09:45:25;;;;;;;4.57;1.55;;;;;;;;;;6140668;23;20851;-55
2023/11/07 09:48:13;;;;;;;6.10;1.70;;;;;;;;;;6141010;23;20037;-54
2023/11/07 09:51:09;;;;;;;2.75;1.50;;;;;;;;;;6141404;23;20084;-54
2023/11/07 09:53:58;;;;;;;3.67;1.50;;;;;;;;;;6142005;23;20032;-64
2023/11/07 09:56:53;;;;;;;2.80;1.48;;;;;;;;;;6142385;23;20057;-62
2023/11/07 09:59:53;;;;;;;3.85;1.60;;;;;;;;;;6142393;23;20100;-62
2023/11/07 10:02:48;;;;;;;1.52;1.35;;;;;;;;;;6139375;23;20045;-62
2023/11/07 10:05:38;;;;;;;2.92;1.50;;;;;;;;;;6140651;23;20025;-62
2023/11/07 10:08:29;;;;;;;3.92;1.27;;;;;;;;;;6140837;23;20025;-62
2023/11/07 10:11:17;;;;;;;2.85;1.23;;;;;;;;;;6141989;23;20059;-60
2023/11/07 10:14:03;;;;;;;2.08;1.10;;;;;;;;;;6141206;23;20498;-66
2023/11/07 10:16:38;;;;;;;3.28;1.40;;;;;;;;;;6141018;23;20022;-60
2023/11/07 10:19:19;;;;;;;1.55;1.17;;;;;;;;;;6141612;23;21030;-60
2023/11/07 10:21:47;;;;;;;6.40;1.55;;;;;;;;;;6141976;23;20036;-61
2023/11/07 10:24:47;;;;;;;2.83;1.50;;;;;;;;;;6140101;23;20030;-61
2023/11/07 10:27:35;;;;;;;3.03;1.38;;;;;;;;;;6140574;23;20675;-61
2023/11/07 10:30:39;;;;;;;4.60;1.50;;;;;;;;;;6140805;23;20022;-60
2023/11/07 10:33:27;;;;;;;4.75;1.60;;;;;;;;;;6142127;23;20072;-61
2023/11/07 10:36:22;;;;;;;4.07;1.77;;;;;;;;;;6140542;23;20510;-61
2023/11/07 10:39:21;;;;;;;2.63;1.42;;;;;;;;;;6140863;23;20100;-61
2023/11/07 10:42:20;;;;;;;3.08;1.30;;;;;;;;;;6140492;23;20021;-61
2023/11/07 10:45:10;;;;;;;1.60;1.30;;;;;;;;;;6142023;23;20244;-61
2023/11/07 10:48:00;;;;;;;4.03;1.50;;;;;;;;;;6141872;23;20029;-62
2023/11/07 10:50:49;;;;;;;3.38;1.63;;;;;;;;;;6141955;23;20029;-61
2023/11/07 10:53:43;;;;;;;3.50;1.48;;;;;;;;;;6142048;23;20021;-61
2023/11/07 10:56:34;;;;;;;1.77;1.40;;;;;;;;;;6140508;23;20464;-61
2023/11/07 10:59:25;;;;;;;2.05;1.30;;;;;;;;;;6142460;23;20033;-61
2023/11/07 11:02:15;;;;;;;3.70;1.60;;;;;;;;;;6140861;23;20021;-61
2023/11/07 11:05:11;;;;;;;3.08;1.52;;;;;;;;;;6141035;23;20030;-61
2023/11/07 11:08:02;;;;;;;3.05;2.13;;;;;;;;;;6140733;23;20025;-54
2023/11/07 11:10:57;;;;;;;3.53;1.58;;;;;;;;;;6141088;23;20306;-61
2023/11/07 11:13:45;;;;;;;3.47;1.55;;;;;;;;;;6140310;23;20030;-60
2023/11/07 11:16:40;;;;;;;5.00;1.85;;;;;;;;;;6140471;23;20025;-61
2023/11/07 11:19:34;;;;;;;4.30;1.63;;;;;;;;;;6141186;23;20025;-61
2023/11/07 11:22:20;;;;;;;4.75;1.88;;;;;;;;;;6140114;23;20036;-60
2023/11/07 11:25:38;;;;;;;3.50;1.80;;;;;;;;;;6109867;23;20022;-60
2023/11/07 11:28:38;;;;;;;6.47;2.38;;;;;;;;;;6110469;23;20029;-65
2023/11/07 11:31:35;;;;;;;4.60;1.70;;;;;;;;;;6111099;23;20495;-66
2023/11/07 11:34:30;;;;;;;6.20;1.80;;;;;;;;;;6111513;23;20022;-64
2023/11/07 11:37:18;;;;;;;3.58;1.83;;;;;;;;;;6111643;23;20061;-65
2023/11/07 11:40:10;;;;;;;4.20;2.00;;;;;;;;;;6112982;23;20027;-65
2023/11/07 11:43:04;;;;;;;3.38;2.00;;;;;;;;;;6110524;23;20084;-61
2023/11/07 11:45:58;;;;;;;3.38;2.35;;;;;;;;;;6114115;23;20544;-61
2023/11/07 11:48:49;;;;;;;4.05;2.40;;;;;;;;;;6111440;23;20456;-53
2023/11/07 11:51:40;;;;;;;8.63;2.58;;;;;;;;;;6111449;23;20468;-52
2023/11/07 11:54:35;;;;;;;8.52;2.50;;;;;;;;;;6113330;23;20029;-50
2023/11/07 11:57:28;;;;;;;9.05;2.75;;;;;;;;;;6111347;23;20097;-51
2023/11/07 12:00:17;;;;;;;5.53;3.25;;;;;;;;;;6113436;23;20475;-52
2023/11/07 12:03:18;;;;;;;4.68;3.13;;;;;;;;;;6113976;23;20042;-61
2023/11/07 12:06:06;;;;;;;11.73;3.60;;;;;;;;;;6113610;23;20080;-62
2023/11/07 12:08:59;;;;;;;3.85;3.00;;;;;;;;;;6113734;23;20026;-62
2023/11/07 12:11:47;;;;;;;5.97;3.50;;;;;;;;;;6112454;23;20522;-62
2023/11/07 12:14:54;;;;;;;3.78;3.40;;;;;;;;;;6112714;23;20025;-62
2023/11/07 12:17:51;;;;;;;6.43;3.50;;;;;;;;;;6112156;23;20022;-63
2023/11/07 12:20:41;;;;;;;5.03;3.45;;;;;;;;;;6113112;23;20149;-61
2023/11/07 12:23:40;;;;;;;5.55;3.75;;;;;;;;;;6125716;23;20021;-59
2023/11/07 12:26:41;;;;;;;8.30;3.60;;;;;;;;;;6141801;23;20032;-59
2023/11/07 12:29:36;;;;;;;10.40;3.90;;;;;;;;;;6140116;23;20084;-58
2023/11/07 12:32:24;;;;;;;8.10;3.60;;;;;;;;;;6142297;23;20261;-59
2023/11/07 12:35:21;;;;;;;7.75;3.65;;;;;;;;;;6142928;23;20021;-59
2023/11/07 12:38:18;;;;;;;7.32;3.97;;;;;;;;;;6142602;23;20029;-61
2023/11/07 12:40:47;;;;;;;6.18;3.45;;;;;;;;;;6142337;23;20088;-61
2023/11/07 12:43:23;;;;;;;7.88;4.03;;;;;;;;;;6142545;23;20610;-62
2023/11/07 12:45:52;;;;;;;7.30;3.35;;;;;;;;;;6139967;23;20762;-63
2023/11/07 12:48:24;;;;;;;4.93;3.45;;;;;;;;;;6143353;23;20025;-63
2023/11/07 12:50:59;;;;;;;6.50;3.60;;;;;;;;;;6140781;23;20117;-63
2023/11/07 12:53:50;;;;;;;11.93;4.18;;;;;;;;;;6141532;23;20022;-63
2023/11/07 12:56:44;;;;;;;7.97;4.38;;;;;;;;;;6139591;23;20064;-61
2023/11/07 12:59:32;;;;;;;7.35;4.25;;;;;;;;;;6141668;23;20040;-61
2023/11/07 13:02:25;;;;;;;9.77;5.00;;;;;;;;;;6141123;23;20022;-63
2023/11/07 13:05:18;;;;;;;5.75;4.32;;;;;;;;;;6142282;23;20077;-64
2023/11/07 13:08:12;;;;;;;11.88;5.32;;;;;;;;;;6141186;23;20025;-64
2023/11/07 13:11:12;;;;;;;9.68;4.65;;;;;;;;;;6142429;23;20080;-64
2023/11/07 13:14:05;;;;;;;11.35;4.72;;;;;;;;;;6140728;23;20067;-63
2023/11/07 13:16:53;;;;;;;15.60;4.97;;;;;;;;;;6142436;23;20686;-59
2023/11/07 13:19:49;;;;;;;13.88;5.22;;;;;;;;;;6141415;23;20030;-50
2023/11/07 13:22:34;;;;;;;8.93;4.68;;;;;;;;;;6140166;23;20040;-53
2023/11/07 13:25:28;;;;;;;10.25;4.43;;;;;;;;;;6141764;23;20026;-51
2023/11/07 13:28:15;;;;;;;7.55;4.30;;;;;;;;;;6141253;23;20026;-52
2023/11/07 13:31:10;;;;;;;10.38;4.70;;;;;;;;;;6141729;23;20022;-49
2023/11/07 13:33:56;;;;;;;9.13;4.50;;;;;;;;;;6142049;23;20550;-59
2023/11/07 13:36:51;;;;;;;13.55;4.40;;;;;;;;;;6140898;23;20031;-59
2023/11/07 13:39:42;;;;;;;10.88;4.30;;;;;;;;;;6142429;23;20025;-59
2023/11/07 13:42:33;;;;;;;10.80;4.70;;;;;;;;;;6140961;23;20037;-60
2023/11/07 13:45:19;;;;;;;10.00;4.60;;;;;;;;;;6141001;23;20021;-59
2023/11/07 13:48:14;;;;;;;9.77;4.85;;;;;;;;;;6143246;23;20053;-59
2023/11/07 13:50:48;;;;;;;13.38;4.97;;;;;;;;;;6141822;23;20021;-59
2023/11/07 13:53:41;;;;;;;9.95;4.68;;;;;;;;;;6141608;23;20029;-59
2023/11/07 13:56:36;;;;;;;13.32;4.85;;;;;;;;;;6141387;23;20022;-49
2023/11/07 13:59:23;;;;;;;12.35;5.40;;;;;;;;;;6141690;23;20085;-54
2023/11/07 14:02:17;;;;;;;15.38;4.47;;;;;;;;;;6141576;23;20519;-52
2023/11/07 14:05:05;;;;;;;8.75;4.55;;;;;;;;;;6140594;23;20352;-53
2023/11/07 14:07:59;;;;;;;9.23;4.55;;;;;;;;;;6140569;23;20392;-52
2023/11/07 14:10:46;;;;;;;8.45;4.10;;;;;;;;;;6141559;23;20021;-54
2023/11/07 14:13:39;;;;;;;8.90;4.70;;;;;;;;;;6141412;23;20018;-64
2023/11/07 14:16:27;;;;;;;5.70;3.83;;;;;;;;;;6142161;23;20018;-64
2023/11/07 14:19:22;;;;;;;9.57;4.05;;;;;;;;;;6141057;23;20546;-64
2023/11/07 14:22:09;;;;;;;7.25;3.67;;;;;;;;;;6139485;23;20057;-64
2023/11/07 14:25:11;;;;;;;6.05;3.47;;;;;;;;;;6140827;23;20044;-64
2023/11/07 14:28:08;;;;;;;6.10;3.22;;;;;;;;;;6138739;23;20029;-64
2023/11/07 14:31:07;;;;;;;10.60;3.17;;;;;;;;;;6140973;23;20639;-61
2023/11/07 14:33:52;;;;;;;5.53;3.33;;;;;;;;;;6141759;23;20022;-62
2023/11/07 14:36:45;;;;;;;8.55;3.03;;;;;;;;;;6141479;23;20360;-62
2023/11/07 14:39:33;;;;;;;6.28;3.10;;;;;;;;;;6141523;23;20055;-62
2023/11/07 14:42:28;;;;;;;6.35;2.83;;;;;;;;;;6139250;23;20053;-61
2023/11/07 14:45:14;;;;;;;6.80;3.25;;;;;;;;;;6140447;23;20566;-64
2023/11/07 14:48:08;;;;;;;6.15;3.42;;;;;;;;;;6140188;23;20364;-53
2023/11/07 14:50:55;;;;;;;4.25;2.97;;;;;;;;;;6140934;23;20029;-61
2023/11/07 14:53:53;;;;;;;6.13;3.20;;;;;;;;;;6139282;23;20025;-61
2023/11/07 14:56:37;;;;;;;4.80;2.95;;;;;;;;;;6138894;23;20029;-61
2023/11/07 14:59:32;;;;;;;7.53;3.20;;;;;;;;;;6137398;23;20036;-61
2023/11/07 15:02:21;;;;;;;8.18;3.15;;;;;;;;;;6139535;23;20027;-61
2023/11/07 15:05:13;;;;;;;7.80;3.35;;;;;;;;;;6141244;23;20021;-53
2023/11/07 15:08:09;;;;;;;6.40;3.47;;;;;;;;;;6140667;23;20105;-63
2023/11/07 15:11:02;;;;;;;9.93;3.72;;;;;;;;;;6140526;23;20033;-61
2023/11/07 15:13:56;;;;;;;4.70;2.75;;;;;;;;;;6141185;23;20033;-61
2023/11/07 15:16:45;;;;;;;10.45;3.47;;;;;;;;;;6141937;23;20316;-60
2023/11/07 15:19:22;;;;;;;7.93;3.42;;;;;;;;;;6142312;23;20029;-60
2023/11/07 15:21:50;;;;;;;7.13;3.28;;;;;;;;;;6142683;23;20025;-60
2023/11/07 15:24:19;;;;;;;6.82;3.20;;;;;;;;;;6143190;23;20026;-60
2023/11/07 15:27:17;;;;;;;6.93;3.28;;;;;;;;;;6141385;23;20033;-63
2023/11/07 15:30:06;;;;;;;7.20;3.40;;;;;;;;;;6143097;23;20026;-64
2023/11/07 15:33:00;;;;;;;11.50;3.50;;;;;;;;;;6139619;23;20337;-64
2023/11/07 15:35:34;;;;;;;7.30;3.53;;;;;;;;;;6143371;23;20032;-64
2023/11/07 15:38:23;;;;;;;10.77;4.03;;;;;;;;;;6140552;23;20018;-64
2023/11/07 15:41:10;;;;;;;8.07;3.75;;;;;;;;;;6142568;23;20026;-64
2023/11/07 15:44:04;;;;;;;6.93;3.90;;;;;;;;;;6143365;23;20092;-51
2023/11/07 15:46:51;;;;;;;9.25;3.75;;;;;;;;;;6141458;23;20124;-64
2023/11/07 15:49:45;;;;;;;9.80;4.15;;;;;;;;;;6141697;23;20040;-64
2023/11/07 15:52:33;;;;;;;15.73;4.38;;;;;;;;;;6138128;23;20570;-64
2023/11/07 15:55:38;;;;;;;9.40;4.03;;;;;;;;;;6137169;23;20053;-64
2023/11/07 15:58:31;;;;;;;10.23;4.80;;;;;;;;;;6139482;23;20104;-64
2023/11/07 16:01:25;;;;;;;10.23;3.85;;;;;;;;;;6143045;23;20026;-52
2023/11/07 16:04:18;;;;;;;9.88;4.07;;;;;;;;;;6142615;23;20084;-60
2023/11/07 16:07:06;;;;;;;8.75;4.07;;;;;;;;;;6143636;23;20100;-60
2023/11/07 16:09:59;;;;;;;9.27;4.00;;;;;;;;;;6143246;23;20028;-61
2023/11/07 16:12:54;;;;;;;6.57;3.75;;;;;;;;;;6141142;23;20029;-60
2023/11/07 16:15:41;;;;;;;11.48;3.90;;;;;;;;;;6141027;23;20500;-60
2023/11/07 16:18:38;;;;;;;9.00;4.00;;;;;;;;;;6142546;23;20025;-60
2023/11/07 16:21:31;;;;;;;8.25;3.70;;;;;;;;;;6141120;23;20028;-61
2023/11/07 16:24:25;;;;;;;8.70;4.03;;;;;;;;;;6137664;23;20032;-64
2023/11/07 16:27:20;;;;;;;12.38;3.97;;;;;;;;;;6141086;23;20033;-64
2023/11/07 16:30:10;;;;;;;8.70;3.92;;;;;;;;;;6138460;23;20033;-64
2023/11/07 16:33:00;;;;;;;10.50;3.90;;;;;;;;;;6141135;23;20069;-65
2023/11/07 16:35:27;;;;;;;11.63;4.25;;;;;;;;;;6139856;23;20025;-64
2023/11/07 16:38:21;;;;;;;14.10;4.65;;;;;;;;;;6136725;23;20033;-63
2023/11/07 16:41:09;;;;;;;12.80;4.65;;;;;;;;;;6139582;23;20084;-60
2023/11/07 16:44:03;;;;;;;13.95;5.35;;;;;;;;;;6141121;23;20026;-60
2023/11/07 16:46:50;;;;;;;15.55;4.63;;;;;;;;;;6138982;23;20033;-62
2023/11/07 16:49:45;;;;;;;16.38;4.82;;;;;;;;;;6139126;23;20081;-60
2023/11/07 16:52:32;;;;;;;9.20;4.75;;;;;;;;;;6140074;23;20024;-61